Time;durP1;ratioP1;P1;durP2;ratioP2;P2;SDS_P1;SDS_P2;PMS_P1;PMS_P2;Temp;Humidity;BMP_temperature;BMP_pressure;BME280_temperature;BME280_humidity;BME280_pressure;Samples;Min_cycle;Max_cycle;Signal;HPM_P1;HPM_P2
2023/10/10 00:01:20;;;;;;;5.20;1.38;;;;;;;14.23;100.00;101678.03;6301585;28;20055;-77
2023/10/10 00:04:25;;;;;;;3.22;1.48;;;;;;;14.23;100.00;101681.53;6301618;28;20052;-75
2023/10/10 00:07:27;;;;;;;3.15;1.65;;;;;;;14.19;100.00;101682.63;6301751;28;20082;-76
2023/10/10 00:10:31;;;;;;;4.35;1.60;;;;;;;14.20;100.00;101686.97;6301085;28;20329;-75
2023/10/10 00:13:32;;;;;;;5.00;1.60;;;;;;;14.22;100.00;101685.13;6301587;28;20048;-77
2023/10/10 00:16:37;;;;;;;2.35;1.50;;;;;;;14.21;100.00;101678.09;6301276;28;20044;-75
2023/10/10 00:19:43;;;;;;;2.67;1.35;;;;;;;14.24;100.00;101680.59;6301542;28;20141;-77
2023/10/10 00:22:47;;;;;;;2.08;1.17;;;;;;;14.26;100.00;101683.13;6301250;28;20060;-75
2023/10/10 00:25:50;;;;;;;5.85;1.70;;;;;;;14.26;100.00;101681.38;6301363;28;20139;-75
2023/10/10 00:28:55;;;;;;;4.30;1.40;;;;;;;14.20;100.00;101687.81;6300748;28;20055;-75
2023/10/10 00:32:05;;;;;;;5.60;1.50;;;;;;;14.20;100.00;101687.81;6301138;28;20076;-75
2023/10/10 00:35:07;;;;;;;4.05;1.23;;;;;;;14.19;100.00;101690.56;6301018;28;20056;-75
2023/10/10 00:38:14;;;;;;;2.63;1.13;;;;;;;14.16;100.00;101682.78;6300919;28;20047;-74
2023/10/10 00:41:18;;;;;;;2.75;1.20;;;;;;;14.18;100.00;101676.47;6300683;28;20044;-77
2023/10/10 00:44:20;;;;;;;6.07;1.42;;;;;;;14.14;100.00;101674.09;6300939;28;20055;-75
2023/10/10 00:47:26;;;;;;;2.38;1.15;;;;;;;14.04;100.00;101675.53;6300708;28;20049;-75
2023/10/10 00:50:28;;;;;;;2.65;1.75;;;;;;;14.04;100.00;101670.25;6300346;28;20056;-77
2023/10/10 00:53:33;;;;;;;1.90;1.50;;;;;;;14.05;100.00;101672.78;6300592;28;20448;-77
2023/10/10 00:56:35;;;;;;;3.25;1.40;;;;;;;14.06;100.00;101674.47;6300418;28;20064;-75
2023/10/10 00:59:42;;;;;;;1.83;1.20;;;;;;;14.02;100.00;101672.09;6300432;28;20048;-75
2023/10/10 01:02:44;;;;;;;4.55;1.17;;;;;;;14.02;100.00;101670.28;6300448;28;20052;-77
2023/10/10 01:05:52;;;;;;;3.83;1.50;;;;;;;14.04;100.00;101683.44;6300672;28;20078;-75
2023/10/10 01:08:59;;;;;;;4.40;1.30;;;;;;;14.04;100.00;101681.66;6300286;28;20341;-77
2023/10/10 01:12:04;;;;;;;7.70;2.08;;;;;;;14.02;100.00;101669.44;6300190;28;20094;-77
2023/10/10 01:15:14;;;;;;;1.95;1.23;;;;;;;14.04;100.00;101670.25;6299839;28;20141;-77
2023/10/10 01:18:15;;;;;;;5.68;1.17;;;;;;;14.03;100.00;101657.94;6300017;28;20050;-77
2023/10/10 01:21:28;;;;;;;2.47;1.02;;;;;;;14.02;100.00;101658.88;6299243;28;20131;-77
2023/10/10 01:24:31;;;;;;;6.03;1.48;;;;;;;14.01;100.00;101651.88;6292113;28;20055;-77
2023/10/10 01:27:32;;;;;;;3.53;1.23;;;;;;;13.98;100.00;101671.38;6299293;28;20060;-77
2023/10/10 01:30:57;;;;;;;1.67;1.13;;;;;;;14.01;100.00;101668.59;6292401;28;20045;-77
2023/10/10 01:34:00;;;;;;;5.32;1.42;;;;;;;13.99;100.00;101657.25;6300047;28;20432;-77
2023/10/10 01:37:07;;;;;;;1.48;0.93;;;;;;;14.02;100.00;101653.59;6300143;28;20045;-77
2023/10/10 01:40:15;;;;;;;6.05;1.50;;;;;;;14.00;100.00;101645.75;6299687;28;20116;-77
2023/10/10 01:43:17;;;;;;;6.07;1.80;;;;;;;13.98;100.00;101644.97;6291739;28;20052;-77
2023/10/10 01:46:27;;;;;;;1.90;1.05;;;;;;;13.96;100.00;101647.69;6299790;28;20115;-77
2023/10/10 01:49:29;;;;;;;6.20;1.77;;;;;;;13.91;100.00;101651.53;6299913;28;20063;-77
2023/10/10 01:52:34;;;;;;;5.43;1.17;;;;;;;13.91;100.00;101646.25;6299831;28;20056;-76
2023/10/10 01:55:36;;;;;;;5.47;1.10;;;;;;;13.93;100.00;101641.72;6300193;28;20055;-77
2023/10/10 01:58:38;;;;;;;5.25;1.25;;;;;;;13.92;100.00;101635.56;6299711;28;20048;-77
2023/10/10 02:01:40;;;;;;;3.92;1.42;;;;;;;13.92;100.00;101634.72;6299629;28;20044;-77
2023/10/10 02:04:42;;;;;;;2.25;1.13;;;;;;;13.91;100.00;101638.31;6291500;28;20045;-77
2023/10/10 02:07:50;;;;;;;4.10;1.30;;;;;;;13.88;100.00;101647.25;6299559;28;20514;-77
2023/10/10 02:10:51;;;;;;;1.55;0.98;;;;;;;13.86;100.00;101651.78;6299679;28;20459;-76
2023/10/10 02:13:53;;;;;;;6.05;1.30;;;;;;;13.90;100.00;101649.81;6299629;28;20056;-78
2023/10/10 02:16:55;;;;;;;6.20;1.25;;;;;;;13.91;100.00;101646.25;6299590;28;20106;-75
2023/10/10 02:20:18;;;;;;;3.60;1.30;;;;;;;13.94;100.00;101656.63;6299242;28;20114;-75
2023/10/10 02:23:30;;;;;;;2.58;0.85;;;;;;;13.95;100.00;101642.50;6299789;28;20048;-77
2023/10/10 02:26:36;;;;;;;2.25;1.38;;;;;;;13.96;100.00;101649.50;6300999;28;20048;-76
2023/10/10 02:29:47;;;;;;;3.47;1.20;;;;;;;13.97;100.00;101651.19;6303802;28;20445;-77
2023/10/10 02:32:49;;;;;;;5.90;1.40;;;;;;;14.01;100.00;101643.97;6303105;28;20056;-76
2023/10/10 02:35:57;;;;;;;3.72;1.40;;;;;;;14.03;100.00;101645.56;6304080;28;20098;-77
2023/10/10 02:39:18;;;;;;;3.25;1.38;;;;;;;14.06;100.00;101648.06;6303640;28;20593;-77
2023/10/10 02:42:20;;;;;;;2.38;1.50;;;;;;;14.07;100.00;101648.91;6303711;28;20424;-78
2023/10/10 02:45:28;;;;;;;9.40;1.50;;;;;;;14.09;100.00;101644.41;6303479;28;20428;-77
2023/10/10 02:48:34;;;;;;;5.80;1.50;;;;;;;14.07;100.00;101647.13;6303645;28;20053;-77
2023/10/10 02:51:40;;;;;;;4.47;1.05;;;;;;;14.07;100.00;101652.41;6294846;28;20094;-76
2023/10/10 02:54:53;;;;;;;6.88;1.65;;;;;;;14.04;100.00;101642.00;6303649;28;20044;-76
2023/10/10 02:57:55;;;;;;;2.13;1.63;;;;;;;14.00;100.00;101632.53;6303228;28;20049;-75
2023/10/10 03:00:57;;;;;;;2.72;1.27;;;;;;;14.05;100.00;101637.56;6302610;28;20056;-76
2023/10/10 03:03:59;;;;;;;3.25;1.67;;;;;;;14.06;100.00;101634.84;6302712;28;20385;-75
2023/10/10 03:07:05;;;;;;;10.65;1.60;;;;;;;14.09;100.00;101631.19;6303259;28;20044;-75
2023/10/10 03:10:37;;;;;;;3.35;1.55;;;;;;;14.06;100.00;101634.84;6302666;28;20044;-74
2023/10/10 03:13:45;;;;;;;4.60;1.52;;;;;;;14.08;100.00;101634.75;6296659;28;20045;-76
2023/10/10 03:16:59;;;;;;;6.18;1.20;;;;;;;14.09;100.00;101632.03;6293594;28;20060;-74
2023/10/10 03:20:13;;;;;;;4.03;1.55;;;;;;;14.04;100.00;101635.88;6302334;28;20052;-74
2023/10/10 03:23:23;;;;;;;4.18;1.10;;;;;;;14.05;100.00;101637.56;6294388;28;20129;-74
2023/10/10 03:26:51;;;;;;;4.53;1.50;;;;;;;14.05;100.00;101633.13;6302597;28;20460;-74
2023/10/10 03:30:15;;;;;;;3.65;1.50;;;;;;;14.06;100.00;101626.91;6302127;28;20443;-76
2023/10/10 03:33:16;;;;;;;2.28;1.50;;;;;;;14.05;100.00;101632.28;6299276;28;20048;-74
2023/10/10 03:36:31;;;;;;;2.55;1.63;;;;;;;14.02;100.00;101627.16;6302325;28;20061;-76
2023/10/10 03:39:49;;;;;;;3.25;1.60;;;;;;;14.03;100.00;101629.72;6299249;28;20048;-75
2023/10/10 05:26:20;;;;;;;3.28;1.80;;;;;;;14.05;100.00;101603.22;6252195;28;20366;-76
2023/10/10 05:29:23;;;;;;;6.95;2.33;;;;;;;14.03;100.00;101591.84;6266564;28;20041;-76
2023/10/10 05:32:30;;;;;;;4.45;2.17;;;;;;;14.02;100.00;101601.59;6275203;28;20571;-77
2023/10/10 05:35:33;;;;;;;5.10;2.30;;;;;;;14.04;100.00;101609.44;6274546;28;20341;-73
2023/10/10 05:38:40;;;;;;;4.15;1.63;;;;;;;14.05;100.00;101608.50;6261321;28;20072;-74
2023/10/10 05:41:41;;;;;;;4.40;1.88;;;;;;;14.07;100.00;101609.25;6261590;28;20146;-73
2023/10/10 05:44:44;;;;;;;2.15;1.20;;;;;;;14.09;100.00;101602.13;6261679;28;20048;-73
2023/10/10 05:47:45;;;;;;;1.70;1.45;;;;;;;14.10;100.00;101602.03;6262685;28;20052;-73
2023/10/10 05:50:48;;;;;;;4.20;1.45;;;;;;;14.12;100.00;101605.41;6255889;28;20064;-73
2023/10/10 05:53:50;;;;;;;5.68;1.65;;;;;;;14.13;100.00;101606.31;6250207;28;20053;-73
2023/10/10 05:56:52;;;;;;;4.63;1.42;;;;;;;14.15;100.00;101609.69;6250314;28;20045;-72
2023/10/10 05:59:53;;;;;;;4.18;2.15;;;;;;;14.14;100.00;101611.50;6250476;28;20061;-73
2023/10/10 06:02:55;;;;;;;2.15;1.40;;;;;;;14.15;100.00;101613.19;6269775;28;20053;-73
2023/10/10 06:05:56;;;;;;;5.55;2.67;;;;;;;14.16;100.00;101611.41;6279755;28;20061;-74
2023/10/10 06:09:01;;;;;;;4.28;2.10;;;;;;;14.16;100.00;101608.75;6279310;28;20052;-74
2023/10/10 06:12:04;;;;;;;4.82;2.20;;;;;;;14.17;100.00;101615.75;6279427;28;20049;-73
2023/10/10 06:15:07;;;;;;;2.53;1.60;;;;;;;14.21;100.00;101609.34;6279368;28;20198;-74
2023/10/10 06:18:15;;;;;;;4.25;1.77;;;;;;;14.24;100.00;101616.28;6279450;28;20048;-74
2023/10/10 06:21:18;;;;;;;2.67;1.83;;;;;;;14.25;100.00;101616.19;6278973;28;20045;-74
2023/10/10 06:24:22;;;;;;;3.33;2.00;;;;;;;14.27;100.00;101621.41;6279360;28;20056;-73
2023/10/10 06:27:28;;;;;;;2.80;1.90;;;;;;;14.28;100.00;101617.81;6278812;28;20444;-74
2023/10/10 06:30:30;;;;;;;1.83;1.50;;;;;;;14.31;100.00;101621.16;6278966;28;20068;-74
2023/10/10 06:33:33;;;;;;;3.22;1.75;;;;;;;14.33;100.00;101615.78;6279004;28;20049;-73
2023/10/10 06:36:37;;;;;;;4.72;2.42;;;;;;;14.34;100.00;101615.69;6278791;28;20532;-75
2023/10/10 06:39:54;;;;;;;10.80;2.40;;;;;;;14.36;100.00;101615.63;6266942;28;20049;-75
2023/10/10 06:42:56;;;;;;;4.70;1.90;;;;;;;14.39;100.00;101616.28;6261988;28;20360;-73
2023/10/10 06:45:58;;;;;;;4.78;2.72;;;;;;;14.42;100.00;101612.63;6268646;28;20135;-74
2023/10/10 06:49:04;;;;;;;6.00;3.10;;;;;;;14.47;100.00;101618.50;6278676;28;20041;-73
2023/10/10 06:52:05;;;;;;;5.20;2.78;;;;;;;14.49;100.00;101619.31;6270040;28;20037;-74
2023/10/10 06:55:12;;;;;;;6.35;3.38;;;;;;;14.53;100.00;101619.97;6266484;28;20360;-74
2023/10/10 06:58:16;;;;;;;5.45;3.55;;;;;;;14.54;100.00;101617.28;6271285;28;20045;-72
2023/10/10 07:01:19;;;;;;;8.85;3.55;;;;;;;14.55;100.00;101629.56;6278023;28;20053;-74
2023/10/10 07:04:21;;;;;;;11.82;4.93;;;;;;;14.57;100.00;101634.75;6278543;28;20428;-74
2023/10/10 07:07:26;;;;;;;8.52;3.95;;;;;;;14.59;100.00;101635.53;6278180;28;20115;-74
2023/10/10 07:10:35;;;;;;;5.25;3.28;;;;;;;14.61;100.00;101629.19;6278360;28;20041;-74
2023/10/10 07:13:43;;;;;;;8.23;3.78;;;;;;;14.66;100.00;101631.59;6276588;28;20055;-73
2023/10/10 07:16:45;;;;;;;8.18;4.13;;;;;;;14.68;100.00;101629.72;6269646;28;20131;-74
2023/10/10 07:21:04;;;;;;;6.22;3.75;;;;;;;14.72;100.00;101631.25;6267045;28;20056;-73
2023/10/10 07:23:16;;;;;;;7.72;4.43;;;;;;;14.78;100.00;101624.75;6268719;28;20457;-72
2023/10/10 07:26:20;;;;;;;9.35;4.47;;;;;;;14.86;100.00;101625.19;6266442;28;20098;-73
2023/10/10 07:29:27;;;;;;;8.25;3.75;;;;;;;14.89;100.00;101623.19;6274912;28;20084;-73
2023/10/10 07:32:29;;;;;;;7.00;4.28;;;;;;;14.94;100.00;101623.81;6267431;28;20052;-73
2023/10/10 07:35:36;;;;;;;16.80;4.82;;;;;;;14.94;100.00;101615.84;6277683;28;20138;-75
2023/10/10 07:38:37;;;;;;;10.00;4.72;;;;;;;14.93;100.00;101610.63;6272280;28;20049;-73
2023/10/10 07:41:44;;;;;;;9.73;3.97;;;;;;;14.96;100.00;101618.41;6271258;28;20045;-73
2023/10/10 07:44:46;;;;;;;7.97;4.30;;;;;;;15.01;100.00;101619.00;6268770;28;20049;-71
2023/10/10 07:51:16;;;;;;;12.57;5.93;;;;;;;15.02;100.00;101619.84;6251754;28;20123;-72
2023/10/10 07:54:28;;;;;;;10.25;5.13;;;;;;;14.98;100.00;101625.31;6269060;28;20072;-72
2023/10/10 07:57:55;;;;;;;11.98;6.45;;;;;;;15.00;100.00;101621.75;6267526;28;20048;-72
2023/10/10 08:01:07;;;;;;;11.02;5.95;;;;;;;15.11;100.00;101629.91;6265607;28;20053;-72
2023/10/10 08:04:12;;;;;;;10.07;6.07;;;;;;;15.14;100.00;101638.53;6268433;28;20077;-72
2023/10/10 08:07:18;;;;;;;7.75;4.90;;;;;;;15.16;100.00;101641.91;6272750;28;20044;-72
2023/10/10 08:10:31;;;;;;;10.70;5.78;;;;;;;15.17;100.00;101638.34;6263207;28;20042;-72
2023/10/10 08:13:34;;;;;;;10.27;5.53;;;;;;;15.19;100.00;101638.25;6267078;28;20057;-72
2023/10/10 08:16:36;;;;;;;11.57;5.43;;;;;;;15.23;100.00;101639.78;6262479;28;20048;-72
2023/10/10 08:19:43;;;;;;;15.88;5.38;;;;;;;15.26;100.00;101634.31;6267761;28;20047;-73
2023/10/10 08:22:44;;;;;;;8.98;4.68;;;;;;;15.29;100.00;101622.66;6267993;28;20045;-73
2023/10/10 08:25:48;;;;;;;9.35;5.53;;;;;;;15.37;100.00;101631.03;6273855;28;20045;-73
2023/10/10 08:28:52;;;;;;;10.23;6.32;;;;;;;15.38;100.00;101632.72;6266700;28;20079;-72
2023/10/10 08:31:53;;;;;;;9.88;5.78;;;;;;;15.30;100.00;101635.81;6262025;28;20353;-72
2023/10/10 08:34:56;;;;;;;10.73;6.57;;;;;;;15.30;100.00;101630.50;6264327;28;20052;-73
2023/10/10 08:37:58;;;;;;;13.57;6.00;;;;;;;15.31;100.00;101632.25;6266966;28;20428;-72
2023/10/10 08:41:08;;;;;;;14.32;4.93;;;;;;;15.39;100.00;101634.41;6270653;28;20041;-72
2023/10/10 08:44:14;;;;;;;13.77;5.40;;;;;;;15.40;100.00;101636.16;6267791;28;20052;-73
2023/10/10 08:47:19;;;;;;;12.68;5.57;;;;;;;15.38;100.00;101630.91;6270322;28;20056;-72
2023/10/10 08:50:24;;;;;;;13.48;5.50;;;;;;;15.39;100.00;101627.31;6273395;28;20068;-72
2023/10/10 08:53:26;;;;;;;6.88;4.80;;;;;;;15.40;100.00;101628.19;6271727;28;20044;-72
2023/10/10 08:56:37;;;;;;;9.73;5.53;;;;;;;15.42;100.00;101627.16;6266621;28;20044;-72
2023/10/10 08:59:42;;;;;;;11.20;5.05;;;;;;;15.56;100.00;101628.13;6275261;28;20522;-72
2023/10/10 09:02:44;;;;;;;11.35;5.10;;;;;;;15.57;100.00;101630.66;6275033;28;20055;-72
2023/10/10 09:05:47;;;;;;;9.25;4.97;;;;;;;15.56;100.00;101621.03;6275577;28;20060;-72
2023/10/10 09:08:50;;;;;;;11.82;6.75;;;;;;;15.50;100.00;101612.59;6275323;28;20049;-72
2023/10/10 09:11:53;;;;;;;16.70;5.20;;;;;;;15.56;100.00;101621.03;6275260;28;20429;-72
2023/10/10 09:14:57;;;;;;;8.52;5.00;;;;;;;15.61;100.00;101615.44;6275608;28;20052;-72
2023/10/10 09:18:14;;;;;;;12.77;5.03;;;;;;;15.69;100.00;101614.06;6275282;28;20295;-73
2023/10/10 09:21:18;;;;;;;10.70;4.97;;;;;;;15.73;100.00;101614.75;6275305;28;20139;-72
2023/10/10 09:24:29;;;;;;;12.07;5.15;;;;;;;15.73;100.00;101623.53;6275133;28;20052;-72
2023/10/10 09:27:35;;;;;;;13.40;5.03;;;;;;;15.73;100.00;101612.94;6275055;28;20357;-73
2023/10/10 09:30:45;;;;;;;11.30;6.22;;;;;;;15.73;100.00;101610.28;6274788;28;20472;-72
2023/10/10 09:33:47;;;;;;;11.27;6.88;;;;;;;15.83;100.00;101617.69;6275301;28;20059;-72
2023/10/10 09:36:51;;;;;;;11.98;6.55;;;;;;;15.92;100.00;101604.69;6278980;28;20049;-72
2023/10/10 09:39:55;;;;;;;12.98;5.60;;;;;;;15.97;100.00;101605.25;6279846;28;20041;-72
2023/10/10 09:43:11;;;;;;;11.80;6.25;;;;;;;15.99;100.00;101602.53;6280026;28;20072;-73
2023/10/10 09:46:19;;;;;;;11.40;5.25;;;;;;;15.97;100.00;101596.47;6280331;28;20064;-72
2023/10/10 09:49:40;;;;;;;11.52;6.32;;;;;;;16.09;100.00;101586.91;6279964;28;20061;-73
2023/10/10 09:52:53;;;;;;;14.70;6.45;;;;;;;16.29;100.00;101580.31;6280001;28;20186;-73
2023/10/10 09:56:01;;;;;;;12.85;6.10;;;;;;;16.40;100.00;101581.34;6279754;28;20392;-73
2023/10/10 09:59:07;;;;;;;10.15;5.75;;;;;;;16.52;100.00;101578.84;6279797;28;20071;-72
2023/10/10 10:02:15;;;;;;;10.95;5.63;;;;;;;16.62;100.00;101575.50;6279489;28;20478;-73
2023/10/10 10:05:20;;;;;;;17.35;6.25;;;;;;;16.62;100.00;101580.81;6279904;28;20068;-73
2023/10/10 10:08:32;;;;;;;11.90;5.80;;;;;;;16.59;100.00;101598.72;6279918;28;20090;-72
2023/10/10 10:11:41;;;;;;;12.30;6.07;;;;;;;16.57;100.00;101595.31;6279261;28;20430;-71
2023/10/10 10:14:53;;;;;;;14.38;6.07;;;;;;;16.53;100.00;101602.59;6279868;28;20049;-72
2023/10/10 10:18:11;;;;;;;10.55;5.68;;;;;;;16.49;100.00;101601.97;6279446;28;20045;-72
2023/10/10 10:21:18;;;;;;;20.13;7.47;;;;;;;16.54;100.00;101599.03;6278934;28;20330;-72
2023/10/10 10:24:30;;;;;;;13.68;5.95;;;;;;;16.64;100.00;101600.13;6261476;28;20045;-73
2023/10/10 10:27:35;;;;;;;10.93;5.07;;;;;;;16.69;100.00;101589.22;6289198;22;20051;-76
2023/10/10 10:30:50;;;;;;;12.48;5.93;;;;;;;16.79;100.00;101579.72;6303276;28;20048;-76
2023/10/10 10:34:06;;;;;;;15.00;6.68;;;;;;;16.81;100.00;101590.25;6279864;28;20148;-76
2023/10/10 10:37:19;;;;;;;12.85;6.90;;;;;;;16.86;100.00;101591.63;6294702;28;20052;-77
2023/10/10 10:40:25;;;;;;;16.80;6.78;;;;;;;16.93;100.00;101587.59;6303529;28;20490;-77
2023/10/10 10:43:32;;;;;;;11.98;5.93;;;;;;;17.00;100.00;101580.09;6303652;28;20045;-77
2023/10/10 10:46:39;;;;;;;22.25;6.75;;;;;;;17.13;100.00;101577.47;6302419;28;20460;-77
2023/10/10 10:49:46;;;;;;;15.95;6.80;;;;;;;17.13;100.00;101569.50;6303367;28;20044;-76
2023/10/10 10:52:56;;;;;;;14.13;6.50;;;;;;;17.12;100.00;101573.09;6303625;28;20049;-76
2023/10/10 10:59:20;;;;;;;14.23;7.15;;;;;;;17.12;100.00;101568.66;6303055;28;20044;-78
2023/10/10 11:02:29;;;;;;;14.05;6.68;;;;;;;17.11;100.00;101571.41;6303016;28;20344;-77
2023/10/10 11:05:32;;;;;;;14.90;7.03;;;;;;;17.08;100.00;101564.50;6303367;28;20044;-78
2023/10/10 11:08:51;;;;;;;11.88;5.88;;;;;;;17.07;100.00;101564.59;6302928;28;20177;-76
2023/10/10 11:11:58;;;;;;;15.95;7.95;;;;;;;17.10;100.00;101557.28;6303039;28;20048;-78
2023/10/10 11:15:05;;;;;;;15.38;8.02;;;;;;;17.07;100.00;101553.97;6302936;28;20056;-78
2023/10/10 11:18:10;;;;;;;17.88;8.80;;;;;;;17.03;100.00;101561.28;6300593;28;20052;-78
2023/10/10 11:21:14;;;;;;;19.48;8.52;;;;;;;16.98;100.00;101553.63;6298002;28;20041;-78
2023/10/10 11:24:23;;;;;;;21.15;9.15;;;;;;;16.95;100.00;101542.38;6293335;28;20078;-77
2023/10/10 11:27:29;;;;;;;14.77;7.82;;;;;;;16.93;100.00;101525.69;6301904;28;20122;-79
2023/10/10 11:30:34;;;;;;;23.58;8.35;;;;;;;16.90;100.00;101529.41;6301856;28;20068;-78
2023/10/10 11:33:48;;;;;;;22.35;9.52;;;;;;;16.92;100.00;101531.97;6302173;28;20166;-77
2023/10/10 11:37:13;;;;;;;17.63;8.52;;;;;;;16.90;100.00;101518.81;6277839;28;20052;-77
2023/10/10 11:40:31;;;;;;;19.58;9.35;;;;;;;16.87;100.00;101512.84;6297445;28;20330;-77
2023/10/10 11:43:32;;;;;;;22.17;9.93;;;;;;;16.88;100.00;101501.25;6291730;28;20152;-78
2023/10/10 11:46:34;;;;;;;30.08;13.23;;;;;;;16.94;100.00;101495.53;6288544;28;20045;-77
2023/10/10 11:49:35;;;;;;;35.47;13.00;;;;;;;17.02;100.00;101492.34;6288180;28;20045;-77
2023/10/10 11:52:51;;;;;;;33.85;13.82;;;;;;;17.09;100.00;101493.66;6299111;28;20048;-78
2023/10/10 11:55:54;;;;;;;29.42;13.13;;;;;;;17.11;100.00;101484.59;6291707;28;20045;-77
2023/10/10 11:58:55;;;;;;;31.90;14.85;;;;;;;17.19;100.00;101476.13;6292550;28;20060;-78
2023/10/10 12:02:07;;;;;;;32.08;12.98;;;;;;;17.27;100.00;101478.25;6292890;28;20061;-77
2023/10/10 12:08:26;;;;;;;37.85;14.13;;;;;;;17.32;100.00;101474.31;6291988;28;20516;-79
2023/10/10 12:11:32;;;;;;;32.60;14.63;;;;;;;17.36;100.00;101465.16;6301215;28;20077;-78
2023/10/10 12:14:34;;;;;;;36.88;14.68;;;;;;;17.45;100.00;101456.53;6299693;28;20119;-78
2023/10/10 12:17:38;;;;;;;31.25;12.77;;;;;;;17.53;100.00;101450.66;6286803;28;20060;-78
2023/10/10 12:20:43;;;;;;;25.00;12.90;;;;;;;17.59;100.00;101449.41;6294385;28;20448;-78
2023/10/10 12:23:48;;;;;;;25.17;11.48;;;;;;;17.67;100.00;101444.38;6292489;28;20052;-76
2023/10/10 12:26:54;;;;;;;25.15;12.93;;;;;;;17.79;100.00;101438.19;6294512;28;20436;-78
2023/10/10 12:29:56;;;;;;;28.30;12.13;;;;;;;17.89;100.00;101444.53;6292386;28;20076;-75
2023/10/10 12:32:57;;;;;;;25.08;11.50;;;;;;;18.03;100.00;101438.19;6289083;28;20444;-79
2023/10/10 12:35:59;;;;;;;25.52;11.48;;;;;;;18.20;100.00;101436.97;6290037;28;20048;-78
2023/10/10 12:39:04;;;;;;;26.67;12.48;;;;;;;18.33;100.00;101431.56;6294411;28;20080;-76
2023/10/10 12:42:07;;;;;;;26.75;12.13;;;;;;;18.41;100.00;101423.88;6295845;28;20049;-75
2023/10/10 12:45:09;;;;;;;23.27;10.43;;;;;;;18.42;100.00;101413.09;6287752;28;20045;-75
2023/10/10 12:48:14;;;;;;;25.05;12.55;;;;;;;18.47;100.00;101418.06;6291271;28;20044;-76
2023/10/10 12:51:16;;;;;;;36.78;12.80;;;;;;;18.58;100.00;101406.63;6284340;28;20044;-76
2023/10/10 12:54:20;;;;;;;28.08;10.93;;;;;;;18.90;100.00;101405.00;6293213;28;20045;-76
2023/10/10 12:57:23;;;;;;;22.17;10.07;;;;;;;19.13;100.00;101400.53;6294470;28;20052;-75
2023/10/10 13:00:24;;;;;;;33.83;11.65;;;;;;;19.19;100.00;101392.06;6295629;28;20047;-75
2023/10/10 13:03:28;;;;;;;34.95;12.63;;;;;;;19.28;100.00;101390.47;6299084;28;20471;-77
2023/10/10 13:06:30;;;;;;;29.65;13.27;;;;;;;19.31;100.00;101387.56;6296062;28;20062;-76
2023/10/10 13:09:37;;;;;;;29.58;12.32;;;;;;;19.43;100.00;101377.72;6292142;28;20049;-76
2023/10/10 13:12:38;;;;;;;27.80;11.43;;;;;;;19.60;100.00;101379.03;6291796;28;20083;-76
2023/10/10 13:15:50;;;;;;;26.00;10.35;;;;;;;19.70;100.00;101382.69;6286274;28;20052;-76
2023/10/10 13:18:52;;;;;;;29.70;10.45;;;;;;;19.75;100.00;101373.31;6290667;28;20110;-74
2023/10/10 13:21:54;;;;;;;27.33;11.15;;;;;;;19.90;100.00;101379.25;6288666;28;20059;-76
2023/10/10 13:24:57;;;;;;;25.45;11.43;;;;;;;20.25;100.00;101381.63;6289422;28;20045;-75
2023/10/10 13:27:58;;;;;;;25.63;10.60;;;;;;;20.42;100.00;101371.34;6288406;28;20044;-75
2023/10/10 13:31:02;;;;;;;27.60;10.45;;;;;;;20.67;100.00;101380.81;6294180;28;20047;-75
2023/10/10 13:34:04;;;;;;;23.67;10.52;;;;;;;20.93;100.00;101374.03;6291298;28;20463;-76
2023/10/10 13:37:07;;;;;;;28.42;10.57;;;;;;;20.90;100.00;101374.34;6293568;28;20086;-76
2023/10/10 13:40:20;;;;;;;31.15;11.35;;;;;;;20.71;100.00;101377.75;6291221;28;20471;-76
2023/10/10 13:43:22;;;;;;;31.38;10.48;;;;;;;20.40;100.00;101379.50;6291829;28;20052;-76
2023/10/10 13:46:24;;;;;;;29.88;11.55;;;;;;;20.13;100.00;101377.31;6300077;28;20048;-77
2023/10/10 13:49:25;;;;;;;23.75;9.45;;;;;;;19.96;100.00;101378.72;6299628;28;20098;-77
2023/10/10 13:52:26;;;;;;;28.27;10.75;;;;;;;19.81;100.00;101369.31;6299887;28;20463;-75
2023/10/10 13:55:33;;;;;;;27.50;10.75;;;;;;;19.77;100.00;101376.72;6299717;28;20067;-76
2023/10/10 13:58:36;;;;;;;29.77;11.07;;;;;;;19.88;100.00;101375.84;6299932;28;20048;-77
2023/10/10 14:01:39;;;;;;;24.95;10.32;;;;;;;19.82;100.00;101370.16;6298406;28;20043;-75
2023/10/10 14:04:48;;;;;;;25.15;10.73;;;;;;;19.74;100.00;101362.78;6299238;28;20040;-76
2023/10/10 14:07:49;;;;;;;109.88;52.10;;;;;;;19.80;100.00;101361.44;6290992;28;20063;-76
2023/10/10 14:10:53;;;;;;;21.33;10.70;;;;;;;19.89;100.00;101363.34;6292964;28;20053;-77
2023/10/10 14:13:56;;;;;;;26.85;10.25;;;;;;;19.98;100.00;101355.44;6287497;28;20060;-77
2023/10/10 14:16:58;;;;;;;25.17;10.27;;;;;;;20.12;100.00;101346.28;6293248;28;20048;-76
2023/10/10 14:19:59;;;;;;;22.58;9.05;;;;;;;20.29;100.00;101358.19;6291456;28;20049;-76
2023/10/10 14:23:01;;;;;;;20.20;8.45;;;;;;;20.22;100.00;101357.88;6294887;28;20049;-76
2023/10/10 14:26:12;;;;;;;17.42;7.35;;;;;;;20.11;100.00;101354.41;6304162;28;20059;-77
2023/10/10 14:29:14;;;;;;;13.38;6.55;;;;;;;20.03;100.00;101347.06;6298142;28;20487;-76
2023/10/10 14:32:15;;;;;;;14.65;6.07;;;;;;;19.90;100.00;101344.56;6294756;28;20055;-77
2023/10/10 14:35:18;;;;;;;18.65;6.70;;;;;;;19.84;100.00;101349.53;6296240;28;20378;-77
2023/10/10 14:38:19;;;;;;;14.27;6.47;;;;;;;19.73;100.00;101339.75;6302827;28;20049;-77
2023/10/10 14:41:23;;;;;;;14.10;5.88;;;;;;;19.66;100.00;101342.06;6294937;28;20047;-76
2023/10/10 14:44:26;;;;;;;18.50;6.45;;;;;;;19.60;100.00;101334.59;6303559;28;20357;-76
2023/10/10 14:47:28;;;;;;;15.30;5.57;;;;;;;19.55;100.00;101334.09;6284251;28;20372;-77
2023/10/10 14:50:30;;;;;;;15.95;6.50;;;;;;;19.54;100.00;101331.56;6278398;28;20068;-76
2023/10/10 14:53:37;;;;;;;11.80;5.07;;;;;;;19.52;100.00;101342.31;6278511;28;20663;-76
2023/10/10 14:56:45;;;;;;;15.73;5.50;;;;;;;19.45;100.00;101339.34;6278697;28;20049;-77
2023/10/10 14:59:48;;;;;;;15.05;5.97;;;;;;;19.40;100.00;101338.84;6278201;28;20084;-76
2023/10/10 15:02:53;;;;;;;13.23;5.90;;;;;;;19.40;100.00;101336.19;6287227;28;20052;-77
2023/10/10 15:05:55;;;;;;;13.10;6.05;;;;;;;19.37;100.00;101324.94;6295399;28;20055;-77
2023/10/10 15:08:56;;;;;;;12.07;4.50;;;;;;;19.30;100.00;101324.56;6294679;28;20048;-77
2023/10/10 15:12:01;;;;;;;13.55;5.72;;;;;;;19.23;100.00;101321.56;6294433;28;20052;-77
2023/10/10 15:15:03;;;;;;;15.88;4.80;;;;;;;19.18;100.00;101306.91;6302876;28;20278;-77
2023/10/10 15:18:04;;;;;;;11.85;5.03;;;;;;;19.10;100.00;101312.00;6296934;28;20052;-77
2023/10/10 15:21:07;;;;;;;10.38;4.30;;;;;;;18.99;100.00;101313.72;6301693;28;20451;-77
2023/10/10 15:24:11;;;;;;;11.13;5.35;;;;;;;18.94;100.00;101312.38;6294570;28;20048;-77
2023/10/10 15:27:14;;;;;;;9.25;4.65;;;;;;;18.85;100.00;101308.66;6302435;28;20432;-77
2023/10/10 15:30:16;;;;;;;12.65;5.38;;;;;;;18.77;100.00;101297.75;6302443;28;20058;-76
2023/10/10 15:33:18;;;;;;;9.98;4.85;;;;;;;18.77;100.00;101305.75;6294001;28;20059;-77
2023/10/10 15:36:20;;;;;;;15.82;6.03;;;;;;;18.77;100.00;101304.91;6284682;28;20048;-76
2023/10/10 15:39:23;;;;;;;13.60;5.68;;;;;;;18.75;100.00;101297.00;6298652;28;20060;-76
2023/10/10 15:42:26;;;;;;;13.57;6.03;;;;;;;18.80;100.00;101304.63;6288634;28;20090;-76
2023/10/10 15:45:37;;;;;;;8.88;4.13;;;;;;;18.80;100.00;101304.63;6299301;28;20191;-76
2023/10/10 15:48:42;;;;;;;10.93;4.47;;;;;;;18.73;100.00;101298.97;6291008;28;20060;-77
2023/10/10 15:51:44;;;;;;;13.73;5.40;;;;;;;18.68;100.00;101301.09;6287619;28;20044;-76
2023/10/10 15:54:45;;;;;;;9.52;5.38;;;;;;;18.66;100.00;101305.69;6278587;28;20392;-76
2023/10/10 15:57:53;;;;;;;9.63;4.30;;;;;;;18.63;100.00;101301.47;6282708;28;20053;-76
2023/10/10 16:00:57;;;;;;;14.98;5.25;;;;;;;18.60;100.00;101304.38;6276651;28;20045;-77